Time;durP1;ratioP1;P1;durP2;ratioP2;P2;SDS_P1;SDS_P2;PMS_P1;PMS_P2;Temp;Humidity;BMP_temperature;BMP_pressure;BME280_temperature;BME280_humidity;BME280_pressure;Samples;Min_cycle;Max_cycle;Signal;HPM_P1;HPM_P2
2023/10/14 00:00:40;;;;;;;;;;;21.80;63.60;;;;;;5056395;28;19921;-66
2023/10/14 00:03:21;;;;;;;;;;;21.80;63.60;;;;;;5058470;28;19924;-67
2023/10/14 00:05:49;;;;;;;;;;;21.90;63.70;;;;;;5055189;28;19932;-67
2023/10/14 00:08:16;;;;;;;;;;;21.80;63.60;;;;;;5056380;28;19971;-65
2023/10/14 00:10:43;;;;;;;;;;;21.90;63.70;;;;;;5052371;28;19921;-65
2023/10/14 00:13:12;;;;;;;;;;;21.80;63.60;;;;;;5049336;28;19932;-64
2023/10/14 00:15:40;;;;;;;;;;;21.90;63.70;;;;;;5054752;28;20019;-64
2023/10/14 00:18:07;;;;;;;;;;;21.90;64.00;;;;;;5055335;28;19920;-65
2023/10/14 00:20:36;;;;;;;;;;;21.80;63.30;;;;;;5053128;28;19920;-66
2023/10/14 00:23:03;;;;;;;;;;;21.80;61.80;;;;;;5057791;28;19920;-66
2023/10/14 00:25:31;;;;;;;;;;;21.70;61.20;;;;;;5049992;28;19921;-65
2023/10/14 00:27:59;;;;;;;;;;;21.70;61.00;;;;;;5029471;28;19932;-64
2023/10/14 00:30:27;;;;;;;;;;;21.60;60.80;;;;;;5051399;28;19921;-64
2023/10/14 00:32:54;;;;;;;;;;;21.60;60.80;;;;;;5053644;28;19947;-65
2023/10/14 00:35:24;;;;;;;;;;;21.60;60.70;;;;;;5036313;28;19928;-64
2023/10/14 00:37:53;;;;;;;;;;;21.50;60.40;;;;;;5052971;28;20031;-65
2023/10/14 00:40:22;;;;;;;;;;;21.50;60.20;;;;;;5054710;28;19982;-66
2023/10/14 00:42:50;;;;;;;;;;;21.50;60.00;;;;;;5054330;28;19931;-66
2023/10/14 00:45:20;;;;;;;;;;;21.50;60.00;;;;;;5053521;28;19951;-65
2023/10/14 00:47:48;;;;;;;;;;;21.40;59.80;;;;;;5037878;28;19920;-65
2023/10/14 00:50:28;;;;;;;;;;;21.40;59.90;;;;;;5048373;28;19927;-65
2023/10/14 00:52:57;;;;;;;;;;;21.40;60.00;;;;;;5054034;28;19920;-65
2023/10/14 00:55:27;;;;;;;;;;;21.40;60.10;;;;;;5054928;28;19920;-67
2023/10/14 00:57:55;;;;;;;;;;;21.40;60.20;;;;;;5057414;28;19948;-65
2023/10/14 01:00:33;;;;;;;;;;;21.40;60.10;;;;;;5044719;28;20417;-66
2023/10/14 01:03:01;;;;;;;;;;;21.40;60.10;;;;;;5047030;28;19947;-66
2023/10/14 01:05:29;;;;;;;;;;;21.30;60.00;;;;;;5055374;28;19925;-66
2023/10/14 01:07:58;;;;;;;;;;;21.40;60.10;;;;;;5053295;28;20373;-66
2023/10/14 01:10:25;;;;;;;;;;;21.40;60.10;;;;;;5055518;28;19970;-65
2023/10/14 01:12:55;;;;;;;;;;;21.40;60.10;;;;;;5053650;28;19921;-63
2023/10/14 01:15:22;;;;;;;;;;;21.40;60.20;;;;;;5053057;28;19927;-65
2023/10/14 01:17:48;;;;;;;;;;;21.40;60.10;;;;;;5052372;28;19920;-66
2023/10/14 01:20:26;;;;;;;;;;;21.40;60.10;;;;;;5054053;28;19921;-66
2023/10/14 01:22:57;;;;;;;;;;;21.40;60.00;;;;;;5051917;28;20333;-67
2023/10/14 01:25:29;;;;;;;;;;;21.40;60.70;;;;;;5052286;28;19962;-66
2023/10/14 01:27:59;;;;;;;;;;;21.40;60.00;;;;;;5029848;28;19933;-66
2023/10/14 01:30:26;;;;;;;;;;;21.40;60.00;;;;;;5054157;28;19928;-64
2023/10/14 01:32:57;;;;;;;;;;;21.40;59.90;;;;;;5050932;28;19933;-67
2023/10/14 01:35:26;;;;;;;;;;;21.40;59.90;;;;;;5054086;28;19921;-65
2023/10/14 01:37:55;;;;;;;;;;;21.40;59.90;;;;;;5053119;28;19920;-66
2023/10/14 01:40:36;;;;;;;;;;;21.40;59.90;;;;;;5055102;28;20262;-66
2023/10/14 01:43:05;;;;;;;;;;;21.40;59.80;;;;;;5050874;28;19959;-65
2023/10/14 01:45:39;;;;;;;;;;;21.40;59.80;;;;;;5052164;28;19928;-67
2023/10/14 01:48:12;;;;;;;;;;;21.40;59.70;;;;;;5050555;28;19921;-65
2023/10/14 01:50:44;;;;;;;;;;;21.40;59.70;;;;;;5049748;28;19921;-66
2023/10/14 01:53:17;;;;;;;;;;;21.40;59.70;;;;;;5052388;28;20312;-64
2023/10/14 01:55:44;;;;;;;;;;;21.40;59.70;;;;;;5051319;28;19921;-67
2023/10/14 01:58:16;;;;;;;;;;;21.40;59.70;;;;;;5052339;28;19921;-65
2023/10/14 02:00:46;;;;;;;;;;;21.40;59.60;;;;;;5052199;28;19931;-65
2023/10/14 02:03:15;;;;;;;;;;;21.40;59.60;;;;;;5052135;28;20032;-66
2023/10/14 02:05:42;;;;;;;;;;;21.40;59.60;;;;;;5051252;28;19986;-65
2023/10/14 02:08:13;;;;;;;;;;;21.40;59.60;;;;;;5053546;28;19925;-64
2023/10/14 02:10:46;;;;;;;;;;;21.40;59.60;;;;;;5047491;28;19931;-65
2023/10/14 02:13:14;;;;;;;;;;;21.40;59.60;;;;;;5050522;28;19931;-67
2023/10/14 02:15:46;;;;;;;;;;;21.40;59.50;;;;;;5049900;28;19968;-65
2023/10/14 02:18:13;;;;;;;;;;;21.40;59.50;;;;;;5051517;28;19964;-65
2023/10/14 02:20:56;;;;;;;;;;;21.40;59.50;;;;;;5051033;28;20354;-65
2023/10/14 02:23:24;;;;;;;;;;;21.40;59.50;;;;;;5047610;28;20335;-64
2023/10/14 02:25:56;;;;;;;;;;;21.40;59.40;;;;;;5047494;28;19925;-65
2023/10/14 02:28:22;;;;;;;;;;;21.40;59.30;;;;;;5052004;28;19995;-67
2023/10/14 02:30:51;;;;;;;;;;;21.40;59.30;;;;;;5053181;28;19921;-68
2023/10/14 02:33:18;;;;;;;;;;;21.40;59.30;;;;;;5069084;28;19975;-65
2023/10/14 02:35:45;;;;;;;;;;;21.40;59.20;;;;;;5051473;28;19971;-69
2023/10/14 02:38:12;;;;;;;;;;;21.40;59.20;;;;;;5049366;28;19925;-65
2023/10/14 02:40:39;;;;;;;;;;;21.40;59.20;;;;;;5051097;28;19970;-65
2023/10/14 02:43:07;;;;;;;;;;;21.40;59.20;;;;;;5052506;28;20328;-66
2023/10/14 02:45:39;;;;;;;;;;;21.40;59.10;;;;;;5052674;28;19921;-65
2023/10/14 02:48:06;;;;;;;;;;;21.40;59.10;;;;;;5053345;28;20015;-68
2023/10/14 02:50:33;;;;;;;;;;;21.40;59.00;;;;;;5050933;28;19921;-67
2023/10/14 02:53:06;;;;;;;;;;;21.40;59.00;;;;;;5051066;28;19921;-66
2023/10/14 02:55:50;;;;;;;;;;;21.40;58.90;;;;;;5050011;28;19974;-66
2023/10/14 02:58:23;;;;;;;;;;;21.30;58.70;;;;;;5047349;28;19971;-65
2023/10/14 03:00:59;;;;;;;;;;;21.40;58.80;;;;;;5052917;28;19940;-70
2023/10/14 03:03:29;;;;;;;;;;;21.30;58.60;;;;;;5043007;28;19932;-67
2023/10/14 03:06:05;;;;;;;;;;;21.30;58.60;;;;;;5051866;28;19970;-66
2023/10/14 03:08:34;;;;;;;;;;;21.30;58.60;;;;;;5050332;28;20489;-65
2023/10/14 03:11:15;;;;;;;;;;;21.30;58.50;;;;;;5051551;28;19939;-69
2023/10/14 03:13:44;;;;;;;;;;;21.30;58.50;;;;;;5051416;28;19976;-65
2023/10/14 03:16:16;;;;;;;;;;;21.30;58.40;;;;;;5053193;28;19925;-65
2023/10/14 03:18:44;;;;;;;;;;;21.30;58.30;;;;;;5050388;28;19947;-66
2023/10/14 03:21:22;;;;;;;;;;;21.30;58.20;;;;;;5050263;28;19956;-66
2023/10/14 03:23:49;;;;;;;;;;;21.30;58.10;;;;;;5046543;28;19974;-66
2023/10/14 03:26:20;;;;;;;;;;;21.30;58.10;;;;;;5051432;28;19928;-65
2023/10/14 03:28:50;;;;;;;;;;;21.30;58.00;;;;;;5054105;28;19921;-65
2023/10/14 03:31:19;;;;;;;;;;;21.20;57.90;;;;;;5060798;28;19932;-66
2023/10/14 03:33:46;;;;;;;;;;;21.20;58.00;;;;;;5069621;28;19921;-65
2023/10/14 03:36:16;;;;;;;;;;;21.20;57.90;;;;;;5058503;28;19921;-65
2023/10/14 03:38:46;;;;;;;;;;;21.20;57.90;;;;;;5057673;28;19987;-66
2023/10/14 03:41:18;;;;;;;;;;;21.20;57.90;;;;;;5052901;28;19996;-66
2023/10/14 03:43:54;;;;;;;;;;;21.20;57.90;;;;;;5056093;28;19920;-68
2023/10/14 03:46:30;;;;;;;;;;;21.20;57.80;;;;;;5051338;28;19948;-65
2023/10/14 03:48:56;;;;;;;;;;;21.20;57.80;;;;;;5055570;28;19921;-65
2023/10/14 03:51:25;;;;;;;;;;;21.20;57.80;;;;;;5055899;28;19928;-67
2023/10/14 03:53:53;;;;;;;;;;;21.20;57.70;;;;;;5053734;28;19990;-65
2023/10/14 03:56:21;;;;;;;;;;;21.20;57.70;;;;;;5057701;28;19920;-66
2023/10/14 03:58:48;;;;;;;;;;;21.20;57.60;;;;;;5056153;28;19921;-67
2023/10/14 04:01:22;;;;;;;;;;;21.20;57.60;;;;;;5056084;28;19925;-63
2023/10/14 04:03:53;;;;;;;;;;;21.20;58.10;;;;;;5053715;28;19933;-65
2023/10/14 04:06:19;;;;;;;;;;;21.20;57.50;;;;;;5054620;28;19921;-65
2023/10/14 04:08:47;;;;;;;;;;;21.20;57.50;;;;;;5054113;28;19920;-67
2023/10/14 04:11:15;;;;;;;;;;;21.20;57.50;;;;;;5049657;28;19928;-66
2023/10/14 04:13:50;;;;;;;;;;;21.20;57.40;;;;;;5052469;28;19932;-66
2023/10/14 04:16:27;;;;;;;;;;;21.20;57.40;;;;;;5055030;28;19932;-65
2023/10/14 04:18:59;;;;;;;;;;;21.20;57.30;;;;;;5051820;28;19956;-68
2023/10/14 04:21:35;;;;;;;;;;;21.20;57.30;;;;;;5040866;28;19921;-65
2023/10/14 04:24:12;;;;;;;;;;;21.20;57.20;;;;;;5053519;28;20114;-65
2023/10/14 04:26:41;;;;;;;;;;;21.20;57.20;;;;;;5047434;28;19944;-64
2023/10/14 04:29:16;;;;;;;;;;;21.20;57.20;;;;;;5050454;28;19924;-64
2023/10/14 04:31:49;;;;;;;;;;;21.20;57.10;;;;;;5052619;28;20020;-65
2023/10/14 04:34:22;;;;;;;;;;;21.20;57.10;;;;;;5050985;28;20010;-64
2023/10/14 04:36:55;;;;;;;;;;;21.20;57.00;;;;;;5053918;28;19921;-67
2023/10/14 04:39:28;;;;;;;;;;;21.20;56.90;;;;;;5052092;28;19986;-64
2023/10/14 04:42:22;;;;;;;;;;;21.20;56.90;;;;;;5051016;28;19920;-65
2023/10/14 04:44:55;;;;;;;;;;;21.20;56.90;;;;;;5050770;28;19920;-66
2023/10/14 04:47:35;;;;;;;;;;;21.20;56.80;;;;;;5052163;28;20282;-65
2023/10/14 04:50:09;;;;;;;;;;;21.20;57.40;;;;;;5047636;28;19925;-66
2023/10/14 04:52:37;;;;;;;;;;;21.20;56.70;;;;;;5045193;28;19920;-66
2023/10/14 04:55:18;;;;;;;;;;;21.20;56.70;;;;;;5047158;28;19924;-66
2023/10/14 04:57:51;;;;;;;;;;;21.20;56.70;;;;;;5048846;28;20024;-65
2023/10/14 05:00:30;;;;;;;;;;;21.20;56.60;;;;;;5049568;28;19921;-64
2023/10/14 05:02:59;;;;;;;;;;;21.20;56.50;;;;;;5047750;28;19932;-65
2023/10/14 05:05:30;;;;;;;;;;;21.20;56.50;;;;;;5051469;28;19921;-64
2023/10/14 05:07:59;;;;;;;;;;;21.20;56.50;;;;;;5049338;28;19921;-67
2023/10/14 05:10:27;;;;;;;;;;;21.20;56.50;;;;;;5047007;28;20020;-66
2023/10/14 05:12:54;;;;;;;;;;;21.20;56.50;;;;;;5051924;28;19927;-65
2023/10/14 05:15:21;;;;;;;;;;;21.20;56.40;;;;;;5050889;28;19925;-67
2023/10/14 05:17:50;;;;;;;;;;;21.10;56.30;;;;;;5049660;28;19929;-66
2023/10/14 05:20:22;;;;;;;;;;;21.20;56.40;;;;;;5049435;28;19965;-65
2023/10/14 05:22:52;;;;;;;;;;;21.10;56.30;;;;;;5049334;28;20306;-65
2023/10/14 05:25:27;;;;;;;;;;;21.10;56.30;;;;;;5049543;28;19920;-67
2023/10/14 05:27:58;;;;;;;;;;;21.10;56.30;;;;;;5048779;28;19925;-66
2023/10/14 05:30:32;;;;;;;;;;;21.20;56.30;;;;;;5043486;28;19921;-65
2023/10/14 05:33:06;;;;;;;;;;;21.10;56.20;;;;;;5049734;28;19921;-66
2023/10/14 05:35:37;;;;;;;;;;;21.10;56.00;;;;;;5048295;28;20379;-66
2023/10/14 05:38:09;;;;;;;;;;;21.10;56.00;;;;;;5048384;28;19933;-65
2023/10/14 05:40:37;;;;;;;;;;;21.10;55.90;;;;;;5044463;28;19921;-66
2023/10/14 05:43:06;;;;;;;;;;;21.10;55.90;;;;;;5048472;28;20274;-66
2023/10/14 05:45:34;;;;;;;;;;;21.10;55.90;;;;;;5048108;28;19925;-68
2023/10/14 05:48:01;;;;;;;;;;;21.10;55.90;;;;;;5049197;28;19928;-65
2023/10/14 05:50:28;;;;;;;;;;;21.10;55.90;;;;;;5041807;28;19921;-66
2023/10/14 05:52:54;;;;;;;;;;;21.10;55.80;;;;;;5045269;28;19928;-65
2023/10/14 05:55:23;;;;;;;;;;;21.10;55.80;;;;;;5043423;28;20062;-67
2023/10/14 05:57:49;;;;;;;;;;;21.10;55.80;;;;;;5040474;28;19929;-66
2023/10/14 06:00:22;;;;;;;;;;;21.10;55.70;;;;;;5043114;28;20019;-66
2023/10/14 06:02:49;;;;;;;;;;;21.10;55.70;;;;;;5041950;28;19959;-68
2023/10/14 06:05:17;;;;;;;;;;;21.10;55.60;;;;;;5043159;28;19928;-66
2023/10/14 06:07:46;;;;;;;;;;;21.10;55.50;;;;;;5044994;28;19998;-67
2023/10/14 06:10:14;;;;;;;;;;;21.10;55.40;;;;;;5042251;28;20223;-65
2023/10/14 06:12:44;;;;;;;;;;;21.10;55.40;;;;;;5050311;28;19921;-65
2023/10/14 06:15:11;;;;;;;;;;;21.10;55.30;;;;;;5038855;28;19921;-65
2023/10/14 06:17:39;;;;;;;;;;;21.00;55.10;;;;;;5046596;28;19920;-65
2023/10/14 06:20:07;;;;;;;;;;;21.10;55.10;;;;;;5044061;28;19955;-70
2023/10/14 06:22:35;;;;;;;;;;;21.00;55.00;;;;;;5039226;28;19936;-67
2023/10/14 06:25:02;;;;;;;;;;;21.10;54.90;;;;;;5039639;28;19928;-66
2023/10/14 06:27:29;;;;;;;;;;;21.10;54.80;;;;;;5034592;28;19979;-66
2023/10/14 06:29:57;;;;;;;;;;;21.10;54.80;;;;;;5042471;28;19952;-65
2023/10/14 06:32:24;;;;;;;;;;;21.00;54.60;;;;;;5046009;28;19924;-66
2023/10/14 06:34:58;;;;;;;;;;;21.00;54.60;;;;;;5042059;28;19921;-68
2023/10/14 06:37:25;;;;;;;;;;;21.00;54.60;;;;;;5044801;28;19921;-65
2023/10/14 06:39:52;;;;;;;;;;;21.00;54.50;;;;;;5044139;28;19921;-67
2023/10/14 06:42:22;;;;;;;;;;;21.00;54.40;;;;;;5047828;28;20016;-65
2023/10/14 06:44:51;;;;;;;;;;;21.00;54.40;;;;;;5028631;28;20596;-66
2023/10/14 06:47:21;;;;;;;;;;;21.00;54.30;;;;;;5046919;28;19936;-66
2023/10/14 06:49:50;;;;;;;;;;;21.00;54.30;;;;;;5047911;28;19921;-68
2023/10/14 06:52:18;;;;;;;;;;;21.00;54.30;;;;;;5048784;28;19952;-66
2023/10/14 06:54:45;;;;;;;;;;;21.00;54.30;;;;;;5039281;28;19924;-66
2023/10/14 06:57:14;;;;;;;;;;;21.00;54.20;;;;;;5042274;28;19932;-67
2023/10/14 06:59:41;;;;;;;;;;;21.00;54.20;;;;;;5044653;28;19921;-65
2023/10/14 07:02:10;;;;;;;;;;;21.00;54.20;;;;;;5044063;28;19950;-67
2023/10/14 07:04:40;;;;;;;;;;;21.00;54.20;;;;;;5038593;28;20039;-65
2023/10/14 07:07:09;;;;;;;;;;;21.00;54.20;;;;;;5045038;28;20015;-68
2023/10/14 07:09:36;;;;;;;;;;;21.00;54.20;;;;;;5040147;28;19935;-66
2023/10/14 07:12:13;;;;;;;;;;;21.00;54.20;;;;;;5049852;28;19927;-64
2023/10/14 07:14:40;;;;;;;;;;;21.00;54.20;;;;;;5049776;28;19959;-65
2023/10/14 07:17:07;;;;;;;;;;;21.00;54.20;;;;;;5049249;28;19952;-64
2023/10/14 07:19:35;;;;;;;;;;;21.00;54.20;;;;;;5048476;28;19947;-65
2023/10/14 07:22:07;;;;;;;;;;;21.00;54.20;;;;;;5041508;28;19927;-65
2023/10/14 07:24:36;;;;;;;;;;;21.00;54.20;;;;;;5054265;28;19956;-65
2023/10/14 07:27:04;;;;;;;;;;;21.00;54.20;;;;;;5048440;28;19932;-67
2023/10/14 07:29:30;;;;;;;;;;;21.10;54.30;;;;;;5046404;28;19962;-66
2023/10/14 07:31:57;;;;;;;;;;;21.00;54.20;;;;;;5049925;28;20265;-66
2023/10/14 07:34:24;;;;;;;;;;;21.10;54.30;;;;;;5047203;28;19933;-65
2023/10/14 07:36:53;;;;;;;;;;;21.10;54.30;;;;;;5044393;28;19932;-68
2023/10/14 07:39:28;;;;;;;;;;;21.10;54.30;;;;;;5047227;28;19947;-65
2023/10/14 07:41:55;;;;;;;;;;;21.10;54.30;;;;;;5047077;28;20202;-66
2023/10/14 07:44:23;;;;;;;;;;;21.10;54.50;;;;;;5040871;28;19927;-67
2023/10/14 07:46:50;;;;;;;;;;;21.10;54.70;;;;;;5048374;28;19925;-66
2023/10/14 07:49:17;;;;;;;;;;;21.00;54.70;;;;;;5049180;28;19940;-65
2023/10/14 07:51:44;;;;;;;;;;;21.10;54.70;;;;;;5047268;28;19925;-66
2023/10/14 07:54:12;;;;;;;;;;;21.10;54.70;;;;;;5045708;28;19925;-65
2023/10/14 07:56:42;;;;;;;;;;;21.10;54.80;;;;;;5048870;28;19925;-65
2023/10/14 07:59:10;;;;;;;;;;;21.10;54.60;;;;;;5048636;28;19927;-65
2023/10/14 08:01:38;;;;;;;;;;;21.10;54.50;;;;;;5048965;28;19921;-65
2023/10/14 08:04:07;;;;;;;;;;;21.10;54.30;;;;;;5047556;28;19924;-66
2023/10/14 08:06:40;;;;;;;;;;;21.00;53.70;;;;;;5044021;28;19956;-65
2023/10/14 08:09:15;;;;;;;;;;;21.00;53.10;;;;;;5043989;28;19944;-66
2023/10/14 08:11:43;;;;;;;;;;;21.00;52.70;;;;;;5043450;28;19960;-66
2023/10/14 08:14:10;;;;;;;;;;;20.90;52.50;;;;;;5046043;28;19971;-65
2023/10/14 08:16:37;;;;;;;;;;;20.90;52.70;;;;;;5044937;28;19966;-66
2023/10/14 08:19:06;;;;;;;;;;;20.90;52.90;;;;;;5048619;28;19921;-65
2023/10/14 08:21:36;;;;;;;;;;;20.90;53.00;;;;;;5050580;28;19921;-68
2023/10/14 08:24:05;;;;;;;;;;;20.90;53.10;;;;;;5048862;28;19925;-69
2023/10/14 08:26:32;;;;;;;;;;;20.90;53.20;;;;;;5044477;28;19921;-66
2023/10/14 08:29:01;;;;;;;;;;;20.90;53.20;;;;;;5048469;28;19924;-67
2023/10/14 08:31:27;;;;;;;;;;;20.90;53.20;;;;;;5049429;28;19968;-67
2023/10/14 08:33:54;;;;;;;;;;;20.90;53.20;;;;;;5048054;28;19936;-66
2023/10/14 08:36:21;;;;;;;;;;;20.90;53.20;;;;;;5047414;28;19940;-68
2023/10/14 08:38:48;;;;;;;;;;;20.90;53.20;;;;;;5049069;28;20277;-67
2023/10/14 08:41:15;;;;;;;;;;;20.90;53.30;;;;;;5047759;28;19955;-66
2023/10/14 08:43:44;;;;;;;;;;;20.90;53.40;;;;;;5050001;28;19933;-66
2023/10/14 08:46:13;;;;;;;;;;;20.90;53.30;;;;;;5046370;28;19943;-67
2023/10/14 08:48:39;;;;;;;;;;;20.90;53.20;;;;;;5049674;28;19932;-66
2023/10/14 08:51:06;;;;;;;;;;;20.90;53.20;;;;;;5048705;28;19921;-66
2023/10/14 08:53:40;;;;;;;;;;;20.90;53.20;;;;;;5049080;28;20003;-66
2023/10/14 08:56:07;;;;;;;;;;;20.90;53.20;;;;;;5049641;28;19935;-66
2023/10/14 08:58:36;;;;;;;;;;;20.90;53.30;;;;;;5049198;28;19982;-67
2023/10/14 09:01:05;;;;;;;;;;;20.90;53.00;;;;;;5052805;28;19921;-66
2023/10/14 09:03:33;;;;;;;;;;;20.90;52.70;;;;;;5051920;28;19966;-68
2023/10/14 09:06:01;;;;;;;;;;;20.90;52.30;;;;;;5048836;28;19928;-68
2023/10/14 09:08:31;;;;;;;;;;;20.90;51.90;;;;;;5051121;28;19933;-68
2023/10/14 09:10:58;;;;;;;;;;;20.90;51.70;;;;;;5048189;28;19927;-68
2023/10/14 09:13:25;;;;;;;;;;;20.90;51.40;;;;;;5047250;28;19925;-68
2023/10/14 09:15:52;;;;;;;;;;;20.80;51.30;;;;;;5053938;28;19942;-69
2023/10/14 09:18:21;;;;;;;;;;;20.80;51.10;;;;;;5043738;28;19924;-71
2023/10/14 09:20:53;;;;;;;;;;;20.80;50.90;;;;;;5044012;28;19928;-69
2023/10/14 09:23:22;;;;;;;;;;;20.80;51.00;;;;;;5051046;28;19932;-66
2023/10/14 09:25:50;;;;;;;;;;;20.80;51.60;;;;;;5053082;28;19963;-69
2023/10/14 09:28:19;;;;;;;;;;;20.80;51.10;;;;;;5046365;28;19920;-66
2023/10/14 09:30:49;;;;;;;;;;;20.80;51.00;;;;;;5046057;28;19934;-66
2023/10/14 09:33:16;;;;;;;;;;;20.80;50.80;;;;;;5053209;28;19925;-67
2023/10/14 09:35:44;;;;;;;;;;;20.70;50.60;;;;;;5049617;28;19921;-66
2023/10/14 09:38:14;;;;;;;;;;;20.80;50.60;;;;;;5048431;28;19952;-66
2023/10/14 09:40:42;;;;;;;;;;;20.70;50.50;;;;;;5044126;28;19999;-66
2023/10/14 09:43:09;;;;;;;;;;;20.70;50.40;;;;;;5046746;28;19924;-67
2023/10/14 09:45:36;;;;;;;;;;;20.70;50.30;;;;;;5052824;28;19924;-68
2023/10/14 09:48:04;;;;;;;;;;;20.70;50.40;;;;;;5047414;28;19929;-66
2023/10/14 09:50:31;;;;;;;;;;;20.70;50.30;;;;;;5043966;28;19921;-66
2023/10/14 09:53:00;;;;;;;;;;;20.70;50.20;;;;;;5039055;28;20046;-66
2023/10/14 09:55:28;;;;;;;;;;;20.70;50.30;;;;;;5041285;28;19939;-66
2023/10/14 09:57:55;;;;;;;;;;;20.70;50.20;;;;;;5051131;28;19925;-66
2023/10/14 10:00:21;;;;;;;;;;;20.70;50.30;;;;;;5051098;28;19925;-66
2023/10/14 10:02:50;;;;;;;;;;;20.70;50.30;;;;;;5041906;28;19924;-69
2023/10/14 10:05:17;;;;;;;;;;;20.70;50.00;;;;;;5031205;28;19975;-69
2023/10/14 10:07:46;;;;;;;;;;;20.70;50.10;;;;;;5043038;28;20173;-68
2023/10/14 10:10:17;;;;;;;;;;;20.70;49.90;;;;;;5049149;28;19925;-70
2023/10/14 10:12:52;;;;;;;;;;;20.70;49.80;;;;;;5041267;28;19979;-69
2023/10/14 10:15:19;;;;;;;;;;;20.70;49.90;;;;;;5045755;28;19960;-68
2023/10/14 10:17:51;;;;;;;;;;;20.70;50.00;;;;;;5050184;28;19925;-68
2023/10/14 10:20:25;;;;;;;;;;;20.70;50.00;;;;;;5047883;28;19920;-69
2023/10/14 10:22:52;;;;;;;;;;;20.70;50.00;;;;;;5049419;28;19928;-69
2023/10/14 10:25:19;;;;;;;;;;;20.70;49.50;;;;;;5049817;28;19924;-67
2023/10/14 10:27:49;;;;;;;;;;;20.70;48.20;;;;;;5048112;28;19969;-67
2023/10/14 10:30:17;;;;;;;;;;;20.70;47.60;;;;;;5045724;28;19982;-72
2023/10/14 10:32:48;;;;;;;;;;;20.60;48.10;;;;;;5050875;28;19920;-69
2023/10/14 10:35:17;;;;;;;;;;;20.50;47.70;;;;;;5045167;28;19920;-69
2023/10/14 10:37:50;;;;;;;;;;;20.50;48.20;;;;;;5050944;28;19928;-66
2023/10/14 10:40:17;;;;;;;;;;;20.50;48.30;;;;;;5049577;28;19971;-66
2023/10/14 10:42:47;;;;;;;;;;;20.50;48.30;;;;;;5045900;28;19936;-64
2023/10/14 10:45:15;;;;;;;;;;;20.50;48.20;;;;;;5041979;28;19932;-64
2023/10/14 10:47:45;;;;;;;;;;;20.50;48.20;;;;;;5050144;28;19967;-65
2023/10/14 10:50:14;;;;;;;;;;;20.50;48.20;;;;;;5045487;28;19925;-65
2023/10/14 10:52:41;;;;;;;;;;;20.50;48.30;;;;;;5040604;28;19927;-63
2023/10/14 10:55:08;;;;;;;;;;;20.40;48.30;;;;;;5043627;28;19971;-63
2023/10/14 10:57:35;;;;;;;;;;;20.40;48.30;;;;;;5038623;28;19921;-64
2023/10/14 11:00:09;;;;;;;;;;;20.50;48.50;;;;;;5046778;28;19925;-64
2023/10/14 11:02:36;;;;;;;;;;;20.50;48.50;;;;;;5046213;28;19956;-65
2023/10/14 11:05:04;;;;;;;;;;;20.50;48.60;;;;;;5049650;28;19956;-65
2023/10/14 11:07:32;;;;;;;;;;;20.50;48.90;;;;;;5041649;28;19964;-66
2023/10/14 11:10:00;;;;;;;;;;;20.50;48.90;;;;;;5040836;28;19921;-65
2023/10/14 11:12:27;;;;;;;;;;;20.50;48.90;;;;;;5045882;28;20241;-66
2023/10/14 11:14:53;;;;;;;;;;;20.60;48.90;;;;;;5046338;28;19952;-66
2023/10/14 11:17:22;;;;;;;;;;;20.60;48.60;;;;;;5047544;28;19920;-65
2023/10/14 11:19:49;;;;;;;;;;;20.60;48.50;;;;;;5048513;28;20070;-67
2023/10/14 11:22:16;;;;;;;;;;;20.60;48.40;;;;;;5043173;28;19967;-64
2023/10/14 11:24:43;;;;;;;;;;;20.60;48.50;;;;;;5033018;28;19925;-65
2023/10/14 11:27:09;;;;;;;;;;;20.60;48.50;;;;;;5043256;28;20318;-64
2023/10/14 11:29:36;;;;;;;;;;;20.60;48.60;;;;;;5045048;28;19928;-65
2023/10/14 11:32:03;;;;;;;;;;;20.60;48.70;;;;;;5041276;28;20188;-65
2023/10/14 11:34:35;;;;;;;;;;;20.60;48.70;;;;;;5048055;28;19928;-66
2023/10/14 11:37:02;;;;;;;;;;;20.60;48.70;;;;;;5041023;28;20386;-65
2023/10/14 11:39:32;;;;;;;;;;;20.70;48.50;;;;;;5045458;28;19925;-67
2023/10/14 11:42:01;;;;;;;;;;;20.60;48.30;;;;;;5044845;28;19921;-67
2023/10/14 11:44:28;;;;;;;;;;;20.60;48.00;;;;;;5040359;28;19929;-66
2023/10/14 11:46:55;;;;;;;;;;;20.60;47.10;;;;;;5048111;28;19933;-66
2023/10/14 11:49:22;;;;;;;;;;;20.60;46.80;;;;;;5048285;28;19928;-66
2023/10/14 11:51:50;;;;;;;;;;;20.60;46.70;;;;;;5045653;28;19975;-67
2023/10/14 11:54:17;;;;;;;;;;;20.50;46.80;;;;;;5044876;28;19970;-66
2023/10/14 11:56:44;;;;;;;;;;;20.50;46.90;;;;;;5046515;28;19932;-65
2023/10/14 11:59:12;;;;;;;;;;;20.50;46.90;;;;;;5046505;28;19990;-65
2023/10/14 12:01:44;;;;;;;;;;;20.50;46.90;;;;;;5051833;28;19925;-66
2023/10/14 12:04:11;;;;;;;;;;;20.50;46.90;;;;;;5044167;28;20164;-65
2023/10/14 12:06:38;;;;;;;;;;;20.50;46.70;;;;;;5045326;28;19980;-64
2023/10/14 12:09:06;;;;;;;;;;;20.50;46.60;;;;;;5051000;28;19937;-66
2023/10/14 12:11:41;;;;;;;;;;;20.50;46.40;;;;;;5049905;28;20120;-65
2023/10/14 12:14:08;;;;;;;;;;;20.50;46.10;;;;;;5048237;28;19920;-66
2023/10/14 12:16:35;;;;;;;;;;;20.40;45.80;;;;;;5049682;28;19979;-66
2023/10/14 12:19:02;;;;;;;;;;;20.40;45.30;;;;;;5049488;28;19920;-65
2023/10/14 12:21:29;;;;;;;;;;;20.40;45.10;;;;;;5051525;28;19944;-66
2023/10/14 12:24:00;;;;;;;;;;;20.40;44.80;;;;;;5048345;28;19925;-66
2023/10/14 12:26:30;;;;;;;;;;;20.50;44.60;;;;;;5051581;28;20401;-66
2023/10/14 12:28:57;;;;;;;;;;;20.40;44.30;;;;;;5049182;28;19951;-65
2023/10/14 12:31:27;;;;;;;;;;;20.40;44.20;;;;;;5044839;28;19948;-66
2023/10/14 12:33:54;;;;;;;;;;;20.40;44.10;;;;;;5044930;28;20290;-66
2023/10/14 12:36:22;;;;;;;;;;;20.40;44.10;;;;;;5045624;28;19970;-67
2023/10/14 12:38:49;;;;;;;;;;;20.40;44.20;;;;;;5050772;28;19924;-66
2023/10/14 12:41:21;;;;;;;;;;;20.40;44.10;;;;;;5051510;28;19921;-66
2023/10/14 12:43:51;;;;;;;;;;;20.40;44.30;;;;;;5047733;28;19978;-66
2023/10/14 12:46:20;;;;;;;;;;;20.40;44.20;;;;;;5049163;28;19931;-67
2023/10/14 12:48:48;;;;;;;;;;;20.40;44.20;;;;;;5051456;28;19921;-64
2023/10/14 12:51:17;;;;;;;;;;;20.40;44.30;;;;;;5043963;28;19928;-66
2023/10/14 12:53:46;;;;;;;;;;;20.40;44.40;;;;;;5048165;28;19924;-66
2023/10/14 12:56:14;;;;;;;;;;;20.40;44.50;;;;;;5048088;28;20301;-66
2023/10/14 12:58:43;;;;;;;;;;;20.40;44.60;;;;;;5049726;28;19933;-64
2023/10/14 13:01:16;;;;;;;;;;;20.40;44.70;;;;;;5048331;28;19936;-65
2023/10/14 13:03:45;;;;;;;;;;;20.40;44.70;;;;;;5050019;28;19920;-65
2023/10/14 13:06:13;;;;;;;;;;;20.40;45.00;;;;;;5049730;28;20389;-65
2023/10/14 13:08:39;;;;;;;;;;;20.40;45.00;;;;;;5045119;28;19929;-65
2023/10/14 13:11:07;;;;;;;;;;;20.40;45.20;;;;;;5051744;28;19975;-66
2023/10/14 13:13:34;;;;;;;;;;;20.50;45.40;;;;;;5044221;28;20248;-64
2023/10/14 13:16:01;;;;;;;;;;;20.50;45.60;;;;;;5050260;28;20370;-66
2023/10/14 13:18:29;;;;;;;;;;;20.50;45.80;;;;;;5051768;28;19921;-65
2023/10/14 13:20:58;;;;;;;;;;;20.50;46.10;;;;;;5047935;28;19974;-64
2023/10/14 13:23:26;;;;;;;;;;;20.50;46.10;;;;;;5048131;28;19920;-64
2023/10/14 13:25:56;;;;;;;;;;;20.50;46.00;;;;;;5045992;28;20008;-64
2023/10/14 13:28:22;;;;;;;;;;;20.60;46.20;;;;;;5050410;28;19951;-65
2023/10/14 13:30:49;;;;;;;;;;;20.50;46.30;;;;;;5048961;28;19987;-65
2023/10/14 13:33:17;;;;;;;;;;;20.50;46.40;;;;;;5048095;28;19924;-66
2023/10/14 13:35:45;;;;;;;;;;;20.60;46.70;;;;;;5047655;28;19928;-65
2023/10/14 13:38:12;;;;;;;;;;;20.60;46.60;;;;;;5046622;28;19959;-65
2023/10/14 13:40:39;;;;;;;;;;;20.60;46.50;;;;;;5049550;28;19959;-65
2023/10/14 13:43:06;;;;;;;;;;;20.60;46.60;;;;;;5048061;28;19927;-65
2023/10/14 13:45:34;;;;;;;;;;;20.60;46.60;;;;;;5050745;28;19924;-65
2023/10/14 13:48:06;;;;;;;;;;;20.60;46.70;;;;;;5031642;28;19943;-65
2023/10/14 13:50:37;;;;;;;;;;;20.60;46.90;;;;;;5046142;28;19921;-65
2023/10/14 13:53:09;;;;;;;;;;;20.60;46.90;;;;;;5044959;28;20279;-65
2023/10/14 13:55:36;;;;;;;;;;;20.60;47.00;;;;;;5048860;28;19920;-65
2023/10/14 13:58:06;;;;;;;;;;;20.60;47.10;;;;;;5043379;28;19932;-65
2023/10/14 14:00:39;;;;;;;;;;;20.60;47.30;;;;;;5043732;28;19925;-66
2023/10/14 14:03:07;;;;;;;;;;;20.70;47.40;;;;;;5048570;28;20418;-65
2023/10/14 14:05:34;;;;;;;;;;;20.60;47.30;;;;;;5049932;28;20269;-65
2023/10/14 14:08:00;;;;;;;;;;;20.70;47.50;;;;;;5038732;28;19933;-66
2023/10/14 14:10:28;;;;;;;;;;;20.70;47.50;;;;;;5046313;28;19975;-65
2023/10/14 14:12:55;;;;;;;;;;;20.70;47.50;;;;;;5042820;28;19956;-66
2023/10/14 14:15:22;;;;;;;;;;;20.70;47.50;;;;;;5049157;28;19921;-66
2023/10/14 14:17:49;;;;;;;;;;;20.70;47.40;;;;;;5051990;28;19920;-64
2023/10/14 14:20:16;;;;;;;;;;;20.70;47.30;;;;;;5050495;28;19921;-65
2023/10/14 14:22:44;;;;;;;;;;;20.70;47.00;;;;;;5050102;28;19920;-65
2023/10/14 14:25:12;;;;;;;;;;;20.70;46.70;;;;;;5050283;28;19925;-64
2023/10/14 14:27:40;;;;;;;;;;;20.70;46.10;;;;;;5050308;28;19931;-65